SBKP/CPQ METAR and TAF weather

Enter ICAO airport designator
Station Type Date Time Source
SBKP METAR 2019/11/21 03:00 UTC NOAA

SBKP 210300Z 12008KT CAVOK 21/17 Q1017


Station Type Date Time Source
SBKP Decoded METAR 2019/11/21 03:00 UTC NOAA

Campinas Aeroporto , Brazil (SBKP) 23-00S 047-08W 661M
Nov 20, 2019 - 10:00 PM EST / 2019.11.21 0300 UTC
Wind: from the ESE (120 degrees) at 9 MPH (8 KT):0
Visibility: greater than 7 mile(s):0
Temperature: 69 F (21 C)
Dew Point: 62 F (17 C)
Relative Humidity: 77%
Pressure (altimeter): 30.03 in. Hg (1017 hPa)
ob: SBKP 210300Z 12008KT CAVOK 21/17 Q1017
cycle: 3

Station Type Date Time Source
SBKP TAF 2019/11/21 06:30 UTC NOAA

TAF SBKP 210220Z 2106/2206 12010KT CAVOK TN19/2108Z TX31/2118Z
BECMG 2110/2112 06007KT FEW030
BECMG 2114/2116 27005KT BKN040 FEW045TCU PROB30 2118/2121 22008KT 8000 TSRA BKN025 FEW040CB
BECMG 2121/2123 12010KT CAVOK
RMK PGG

Example: see airport list